158 км

Карта отелей и гостиниц, располагающихся рядом с аэропортом 158 км :

158 км Красноярский край 69° 30' 26.3988" N, 85° 59' 35.7612" E
158 км Красноярский край 69° 30' 26.3988" N, 85° 59' 35.7612" E
Код аэродрома ИКАО
ZDG3
Код аэродрома RU
ЗДГ3
Координаты
N69.50733° E085.99327°
Превышение над уровнем моря
26
Основная полоса
06/24
Курс магнитный
059,6/239,6
Длина основной ВПП
30
Ширина основной ВПП
30
Покрытие основной ВПП
Нетвёрдое (грунт)
Освещение ВПП
Нет
Тип: 
Вертодром
Класс аэродрома: 
Принадлежность: 
ГА
Статус: 
Действующий
Сайт: 
E-mail аэродрома: 
Страна: 
Россия
Регион: 
Красноярский край
Город: 
Дополнительная информация: 

Найти трансфер

С помощью этой формы Вы можете найти трансфер из аэропорта 158 км в город, аэропорт или вокзал:

Карта места

Javascript is required to view this map.

Погода в аэропортах:

Авиационная погода в Николаеве

Регион: 
Погода METAR: 
UKON 251230Z 16010MPS 9000 -SHRA SCT///CB 10/07 Q1001 R04/290165 NOSIG
Время наблюдения
2021-01-25T12:30:00Z
Температура C
10.0
Точка росы
7.0
Направление ветра
160
Скорость ветра (узлы)
19
Метео видимость
5.59
Явления погоды
-SHRA
Условия полета

Авиационная погода в Караганде

Регион: 
Погода METAR: 
UAKK 251830Z 25009MPS 3000 SN DRSN OVC012 M12/M15 Q1030 R23/820555 NOSIG RMK QFE725/0967
Время наблюдения
2021-01-25T18:30:00Z
Температура C
-12.0
Точка росы
-15.0
Направление ветра
250
Скорость ветра (узлы)
17
Метео видимость
1.86
Явления погоды
SN DRSN
Условия полета
IFR
Аэропорт подробнее: 

Авиационная погода в Аулие-Ата

Регион: 
Погода METAR: 
UADD 251830Z 36001MPS 1300 R13/P2000 BR OVC002 M07/M07 Q1029 R13/890150 NOSIG RMK QBB070 MT OBSC QFE714/0952
Время наблюдения
2021-01-25T18:30:00Z
Температура C
-7.0
Точка росы
-7.0
Направление ветра
360
Скорость ветра (узлы)
2
Метео видимость
0.81
Явления погоды
BR
Условия полета
LIFR
Аэропорт подробнее: 

Авиационная погода в Ровно

Регион: 
Погода METAR: 
UKLR 251230Z 11004MPS 070V140 2000 -DZ BR OVC003 02/02 Q0992 NOSIG
Время наблюдения
2021-01-25T12:30:00Z
Температура C
2.0
Точка росы
2.0
Направление ветра
110
Скорость ветра (узлы)
8
Метео видимость
1.24
Явления погоды
-DZ BR
Условия полета
LIFR
Аэропорт подробнее: